Odem, Texas
Current Conditions -  °F | °C
As of 1:51 AM on Friday 21 Nov 2014 (Local Time) from KCRP Reporting Station
Few Clouds Few Clouds  
Wind Chill: 65°   Ceiling: Unl
Heat Index: 65°   Visibility: 10mi
Dew Point: 63°   Wind: 5mph
Humidity: 93%   Direction: 180°S
Pressure: 30.04"   Gusts: NA
Location:  27.95°N, 97.58°W
Report Text: KCRP 210751Z 18004KT 10SM FEW032 18/17 A3004 RMK AO2 SLP170 T01830172
Loading
Personal Weather Stations






























Interactive Weather Map New forecast layout! Learn more

10-Day Weather Forecast

Advertisements
Track Severe Weather on mobile